Time;durP1;ratioP1;P1;durP2;ratioP2;P2;SDS_P1;SDS_P2;PMS_P1;PMS_P2;Temp;Humidity;BMP_temperature;BMP_pressure;BME280_temperature;BME280_humidity;BME280_pressure;Samples;Min_cycle;Max_cycle;Signal;HPM_P1;HPM_P2
2022/09/24 00:01:32;;;;;;;4.50;1.00;;;;;;;9.76;100.00;98325.56;4739713;30;20111;-95
2022/09/24 00:04:06;;;;;;;3.72;0.93;;;;;;;9.64;100.00;98334.38;4755579;30;20121;-94
2022/09/24 00:06:41;;;;;;;6.43;1.05;;;;;;;9.68;100.00;98342.13;4771974;30;20028;-93
2022/09/24 00:09:14;;;;;;;4.55;0.85;;;;;;;9.66;100.00;98337.81;4775478;30;20090;-94
2022/09/24 00:11:42;;;;;;;4.05;0.70;;;;;;;9.56;100.00;98330.13;4767070;30;20048;-94
2022/09/24 00:14:08;;;;;;;3.72;0.88;;;;;;;9.35;100.00;98341.66;4765655;30;20127;-93
2022/09/24 00:16:34;;;;;;;4.32;0.90;;;;;;;9.31;100.00;98344.28;4749921;30;20121;-94
2022/09/24 00:19:02;;;;;;;3.22;0.80;;;;;;;9.37;100.00;98345.06;4768383;30;20122;-92
2022/09/24 00:21:30;;;;;;;6.13;1.00;;;;;;;9.25;100.00;98336.56;4759107;30;20047;-93
2022/09/24 00:24:02;;;;;;;3.45;0.60;;;;;;;9.21;100.00;98327.91;4754090;30;20186;-92
2022/09/24 00:29:19;;;;;;;5.15;0.95;;;;;;;9.23;100.00;98326.16;4754290;30;20416;-94
2022/09/24 00:31:48;;;;;;;1.83;0.65;;;;;;;9.21;100.00;98331.38;4752626;30;20036;-94
2022/09/24 00:34:13;;;;;;;4.07;1.00;;;;;;;9.21;100.00;98339.19;4766835;30;20148;-94
2022/09/24 00:36:39;;;;;;;3.53;0.82;;;;;;;9.18;100.00;98334.00;4757231;30;20095;-91
2022/09/24 00:39:06;;;;;;;6.57;1.02;;;;;;;9.17;100.00;98332.28;4746376;30;20094;-94
2022/09/24 00:41:35;;;;;;;3.28;0.95;;;;;;;9.11;100.00;98334.09;4736741;30;20044;-93
2022/09/24 00:44:00;;;;;;;3.55;0.65;;;;;;;9.34;100.00;98339.06;4761483;30;20029;-95
2022/09/24 00:46:41;;;;;;;2.63;0.60;;;;;;;9.04;100.00;98335.88;4750487;30;20040;-94
2022/09/24 00:49:13;;;;;;;5.45;1.40;;;;;;;9.17;100.00;98347.91;4748258;30;20119;-95
2022/09/24 00:51:41;;;;;;;3.67;0.75;;;;;;;9.08;100.00;98337.56;4764205;30;20047;-93
2022/09/24 00:54:14;;;;;;;2.72;0.80;;;;;;;9.18;100.00;98347.00;4768972;30;20129;-93
2022/09/24 00:56:48;;;;;;;3.00;0.63;;;;;;;8.93;100.00;98340.31;4753500;30;20043;-94
2022/09/24 00:59:21;;;;;;;4.70;0.90;;;;;;;9.15;100.00;98333.19;4745060;30;20035;-94
2022/09/24 01:01:48;;;;;;;2.63;0.75;;;;;;;9.09;100.00;98341.03;4757819;30;20048;-94
2022/09/24 01:04:16;;;;;;;3.72;0.77;;;;;;;9.19;100.00;98340.94;4749570;30;20140;-93
2022/09/24 01:06:42;;;;;;;5.57;0.98;;;;;;;9.30;100.00;98346.03;4752198;30;20479;-93
2022/09/24 01:09:08;;;;;;;2.60;0.73;;;;;;;9.26;100.00;98353.91;4742238;30;20029;-94
2022/09/24 01:11:46;;;;;;;5.18;1.02;;;;;;;9.18;100.00;98356.56;4750717;30;20039;-95
2022/09/24 01:14:45;;;;;;;1.60;0.60;;;;;;;9.04;100.00;98357.53;4760618;30;20070;-93
2022/09/24 01:17:35;;;;;;;3.95;0.90;;;;;;;9.16;100.00;98353.97;4766473;30;20087;-94
2022/09/24 01:20:40;;;;;;;1.63;0.60;;;;;;;9.09;100.00;98354.91;4749773;30;20384;-93
2022/09/24 01:23:44;;;;;;;2.15;0.60;;;;;;;8.92;100.00;98352.47;4761811;30;20131;-94
2022/09/24 01:26:22;;;;;;;;;;;;;;;9.15;100.00;98341.84;4762026;30;20069;-93
2022/09/24 01:29:36;;;;;;;2.45;0.68;;;;;;;9.19;100.00;98338.31;4757950;30;20717;-95
2022/09/24 01:32:12;;;;;;;2.47;0.77;;;;;;;9.12;100.00;98333.22;4725552;30;20820;-93
2022/09/24 01:34:54;;;;;;;3.42;0.77;;;;;;;9.08;100.00;98332.38;4754914;30;20187;-95
2022/09/24 01:37:22;;;;;;;4.07;0.82;;;;;;;9.03;100.00;98332.44;4764662;30;20111;-93
2022/09/24 01:39:51;;;;;;;3.58;0.63;;;;;;;9.04;100.00;98325.47;4747832;30;20030;-93
2022/09/24 01:42:19;;;;;;;3.30;0.70;;;;;;;9.09;100.00;98328.03;4739916;30;20040;-94
2022/09/24 01:44:46;;;;;;;2.00;0.50;;;;;;;9.08;100.00;98332.38;4747945;30;20044;-94
2022/09/24 01:47:20;;;;;;;3.95;0.88;;;;;;;9.00;100.00;98318.59;4761623;30;20036;-94
2022/09/24 01:49:46;;;;;;;5.05;1.13;;;;;;;8.88;100.00;98328.22;4750021;30;20044;-94
2022/09/24 01:52:18;;;;;;;5.38;0.80;;;;;;;8.90;100.00;98320.41;4747602;30;20048;-93
2022/09/24 01:54:50;;;;;;;3.10;0.70;;;;;;;8.88;100.00;98327.38;4739651;30;20029;-94
2022/09/24 01:57:26;;;;;;;4.40;0.60;;;;;;;8.87;100.00;98330.84;4764367;30;20047;-94
2022/09/24 01:59:57;;;;;;;2.65;0.57;;;;;;;8.72;100.00;98321.44;4733555;30;20036;-94
2022/09/24 02:02:29;;;;;;;2.83;0.70;;;;;;;8.71;100.00;98319.69;4749441;30;20053;-94
2022/09/24 02:05:15;;;;;;;1.92;0.50;;;;;;;8.87;100.00;98312.63;4730743;30;20413;-96
2022/09/24 02:07:51;;;;;;;3.28;0.65;;;;;;;8.82;100.00;98327.41;4749778;30;20036;-95
2022/09/24 02:10:19;;;;;;;3.58;0.70;;;;;;;8.84;100.00;98329.13;4746590;30;20040;-94
2022/09/24 02:12:54;;;;;;;3.85;0.63;;;;;;;8.83;100.00;98317.00;4760312;30;20266;-95
2022/09/24 02:15:28;;;;;;;2.47;0.70;;;;;;;8.92;100.00;98320.38;4760022;30;20300;-92
2022/09/24 02:17:57;;;;;;;3.33;0.50;;;;;;;9.00;100.00;98327.22;4739927;30;20055;-94
2022/09/24 02:20:26;;;;;;;2.55;0.57;;;;;;;9.00;100.00;98326.38;4738375;30;20028;-94
2022/09/24 02:22:54;;;;;;;3.75;0.63;;;;;;;9.15;100.00;98325.38;4760229;30;20097;-94
2022/09/24 02:25:28;;;;;;;3.88;0.70;;;;;;;9.11;100.00;98328.88;4780443;30;20071;-95
2022/09/24 02:27:53;;;;;;;2.70;0.55;;;;;;;9.00;100.00;98323.78;4778372;29;20036;-93
2022/09/24 02:30:19;;;;;;;1.55;0.50;;;;;;;9.05;100.00;98324.59;4763033;30;21347;-94
2022/09/24 02:32:45;;;;;;;3.63;0.50;;;;;;;9.02;100.00;98322.91;4756790;30;20042;-95
2022/09/24 02:35:11;;;;;;;3.17;0.80;;;;;;;8.94;100.00;98334.25;4747291;30;20051;-94
2022/09/24 02:37:41;;;;;;;2.88;0.60;;;;;;;8.95;100.00;98331.63;4737729;30;20071;-94
2022/09/24 02:40:09;;;;;;;3.05;0.63;;;;;;;8.86;100.00;98329.97;4743410;30;20046;-95
2022/09/24 02:42:36;;;;;;;4.20;0.77;;;;;;;8.73;100.00;98328.38;4759271;30;20044;-93
2022/09/24 02:45:03;;;;;;;3.35;0.65;;;;;;;8.79;100.00;98320.50;4750974;30;20036;-94
2022/09/24 02:47:29;;;;;;;4.30;0.70;;;;;;;8.80;100.00;98326.56;4763790;30;20036;-91
2022/09/24 02:49:57;;;;;;;3.00;0.60;;;;;;;8.93;100.00;98322.97;4756741;30;20043;-92
2022/09/24 02:52:23;;;;;;;4.18;0.80;;;;;;;9.01;100.00;98320.31;4755531;30;20042;-93
2022/09/24 02:54:51;;;;;;;4.50;0.75;;;;;;;8.90;100.00;98327.34;4757209;30;20036;-91
2022/09/24 02:57:17;;;;;;;4.15;0.65;;;;;;;9.01;100.00;98321.16;4767711;30;20433;-90
2022/09/24 02:59:45;;;;;;;2.83;0.68;;;;;;;9.02;100.00;98322.03;4759101;30;20093;-92
2022/09/24 03:02:11;;;;;;;4.35;0.65;;;;;;;9.09;100.00;98328.91;4739074;30;20072;-91
2022/09/24 03:04:37;;;;;;;5.72;1.02;;;;;;;9.20;100.00;98331.41;4754752;30;20075;-91
2022/09/24 03:07:03;;;;;;;5.68;0.65;;;;;;;9.21;100.00;98333.97;4765811;30;20058;-91
2022/09/24 03:09:31;;;;;;;3.85;0.77;;;;;;;9.18;100.00;98327.94;4740206;30;20553;-92
2022/09/24 03:11:59;;;;;;;2.22;0.60;;;;;;;9.14;100.00;98329.69;4764403;30;20032;-91
2022/09/24 03:14:24;;;;;;;2.33;0.60;;;;;;;9.11;100.00;98337.53;4777376;30;20039;-91
2022/09/24 03:16:52;;;;;;;1.95;0.50;;;;;;;9.00;100.00;98327.22;4762671;30;20048;-92
2022/09/24 03:19:17;;;;;;;3.60;0.65;;;;;;;8.99;100.00;98335.06;4745172;30;20063;-92
2022/09/24 03:21:43;;;;;;;3.65;0.70;;;;;;;9.11;100.00;98334.94;4776900;30;20067;-92
2022/09/24 03:24:08;;;;;;;3.70;1.00;;;;;;;9.15;100.00;98336.63;4762113;30;20500;-90
2022/09/24 03:26:37;;;;;;;4.05;0.88;;;;;;;9.20;100.00;98341.81;4768454;30;20036;-90
2022/09/24 03:29:03;;;;;;;4.13;0.70;;;;;;;9.27;100.00;98339.97;4774256;30;20036;-91
2022/09/24 03:31:28;;;;;;;4.93;0.60;;;;;;;9.31;100.00;98344.28;4777181;30;20089;-91
2022/09/24 03:33:59;;;;;;;4.50;0.70;;;;;;;9.42;100.00;98346.78;4764745;30;20040;-91
2022/09/24 03:36:25;;;;;;;4.25;0.93;;;;;;;9.39;100.00;98345.06;4776706;30;20036;-94
2022/09/24 03:38:54;;;;;;;3.05;0.70;;;;;;;9.46;100.00;98344.09;4762958;30;20076;-92
2022/09/24 03:41:21;;;;;;;4.07;1.08;;;;;;;9.50;100.00;98348.41;4769765;30;20028;-93
2022/09/24 03:43:50;;;;;;;2.08;0.57;;;;;;;9.42;100.00;98342.41;4777761;30;20067;-94
2022/09/24 03:46:16;;;;;;;3.00;0.70;;;;;;;9.42;100.00;98350.22;4759564;30;20075;-94
2022/09/24 03:48:41;;;;;;;2.72;0.57;;;;;;;9.30;100.00;98343.44;4755425;30;20520;-95
2022/09/24 03:51:23;;;;;;;4.88;0.73;;;;;;;9.35;100.00;98340.75;4767682;30;20060;-94
2022/09/24 03:53:48;;;;;;;3.55;0.65;;;;;;;9.32;100.00;98339.06;4766082;30;20032;-95
2022/09/24 03:56:18;;;;;;;4.00;0.70;;;;;;;9.37;100.00;98354.63;4774262;30;20051;-94
2022/09/24 03:58:46;;;;;;;3.92;0.73;;;;;;;9.32;100.00;98353.81;4754376;30;20032;-93
2022/09/24 04:01:20;;;;;;;2.42;0.57;;;;;;;9.19;100.00;98351.34;4755545;30;20024;-94
2022/09/24 04:03:47;;;;;;;5.20;0.80;;;;;;;9.42;100.00;98358.03;4761788;30;20059;-95
2022/09/24 04:06:17;;;;;;;3.33;0.73;;;;;;;9.45;100.00;98357.13;4764878;30;20047;-94
2022/09/24 04:08:43;;;;;;;4.03;0.60;;;;;;;9.33;100.00;98352.94;4752227;30;20032;-94
2022/09/24 04:11:08;;;;;;;3.85;0.68;;;;;;;9.40;100.00;98359.81;4740520;30;20501;-95
2022/09/24 04:13:33;;;;;;;5.28;0.77;;;;;;;9.40;100.00;98357.19;4737866;30;20040;-95
2022/09/24 04:16:03;;;;;;;4.20;0.80;;;;;;;9.36;100.00;98358.09;4752761;30;20039;-95
2022/09/24 04:18:29;;;;;;;4.50;0.75;;;;;;;9.08;100.00;98349.72;4738785;30;20524;-95
2022/09/24 04:20:58;;;;;;;4.82;0.65;;;;;;;9.10;100.00;98354.00;4753029;30;20040;-95
2022/09/24 04:23:24;;;;;;;4.82;0.70;;;;;;;9.16;100.00;98360.94;4758570;30;20564;-96
2022/09/24 04:25:49;;;;;;;3.60;1.00;;;;;;;9.15;100.00;98351.38;4759086;30;20040;-94
2022/09/24 04:28:16;;;;;;;6.45;0.90;;;;;;;9.08;100.00;98352.34;4751848;30;20041;-95
2022/09/24 04:30:41;;;;;;;4.63;1.00;;;;;;;9.06;100.00;98347.16;4738195;30;20049;-95
2022/09/24 04:33:07;;;;;;;5.15;0.80;;;;;;;9.07;100.00;98355.81;4746047;30;20036;-95
2022/09/24 04:35:35;;;;;;;5.07;0.80;;;;;;;9.10;100.00;98355.78;4749347;30;20028;-93
2022/09/24 04:38:01;;;;;;;5.70;0.80;;;;;;;9.19;100.00;98360.88;4756507;30;20032;-94
2022/09/24 04:40:27;;;;;;;8.23;1.02;;;;;;;9.09;100.00;98370.53;4767937;29;20058;-95
2022/09/24 04:42:52;;;;;;;5.38;1.00;;;;;;;8.97;100.00;98361.06;4766907;30;20024;-94
2022/09/24 04:45:18;;;;;;;3.33;0.80;;;;;;;8.92;100.00;98357.69;4782155;29;20048;-96
2022/09/24 04:47:52;;;;;;;4.05;0.90;;;;;;;9.17;100.00;98365.22;4753442;30;20024;-95
2022/09/24 04:50:19;;;;;;;23.33;11.57;;;;;;;9.14;100.00;98367.88;4766683;30;20028;-94
2022/09/24 04:52:44;;;;;;;32.10;16.05;;;;;;;9.20;100.00;98368.69;4752221;30;20056;-94
2022/09/24 04:55:10;;;;;;;22.38;11.00;;;;;;;9.15;100.00;98360.03;4739879;30;20724;-95
2022/09/24 04:57:35;;;;;;;26.45;13.45;;;;;;;9.19;100.00;98355.69;4753719;30;20039;-95
2022/09/24 05:00:13;;;;;;;20.10;10.05;;;;;;;9.19;100.00;98356.53;4743768;30;20115;-94
2022/09/24 05:02:39;;;;;;;19.52;9.75;;;;;;;9.15;100.00;98362.66;4751630;30;20116;-94
2022/09/24 05:05:05;;;;;;;12.10;5.50;;;;;;;9.27;100.00;98368.59;4752854;30;20063;-95
2022/09/24 05:07:30;;;;;;;10.05;4.05;;;;;;;9.31;100.00;98363.38;4756122;30;20032;-95
2022/09/24 05:09:58;;;;;;;14.43;3.78;;;;;;;9.29;100.00;98377.28;4754915;30;20113;-95
2022/09/24 05:12:26;;;;;;;11.45;3.88;;;;;;;9.17;100.00;98368.72;4754704;30;20036;-94
2022/09/24 05:14:52;;;;;;;9.85;2.75;;;;;;;9.14;100.00;98373.06;4753972;30;20040;-94
2022/09/24 05:17:23;;;;;;;8.95;2.30;;;;;;;9.11;100.00;98373.09;4746195;30;20040;-95
2022/09/24 05:19:48;;;;;;;10.75;4.20;;;;;;;9.05;100.00;98364.47;4755543;30;20561;-95
2022/09/24 05:22:13;;;;;;;10.55;4.63;;;;;;;9.23;100.00;98373.00;4753156;30;20052;-94
2022/09/24 05:24:43;;;;;;;10.30;3.92;;;;;;;9.15;100.00;98380.00;4760910;30;20109;-96
2022/09/24 05:27:09;;;;;;;9.65;2.75;;;;;;;9.14;100.00;98379.13;4753674;30;20036;-95
2022/09/24 05:29:42;;;;;;;8.70;3.20;;;;;;;9.20;100.00;98381.69;4754099;30;20096;-95
2022/09/24 05:32:14;;;;;;;8.55;3.05;;;;;;;9.11;100.00;98379.16;4739550;30;20567;-94
2022/09/24 05:34:42;;;;;;;7.25;1.80;;;;;;;9.12;100.00;98382.66;4765115;30;20047;-93
2022/09/24 05:37:08;;;;;;;5.25;1.30;;;;;;;9.29;100.00;98392.88;4739636;30;20032;-94
2022/09/24 05:39:39;;;;;;;4.95;0.93;;;;;;;9.43;100.00;98396.19;4750961;30;20051;-93
2022/09/24 05:42:06;;;;;;;7.28;1.08;;;;;;;9.59;100.00;98385.63;4752888;30;20055;-95
2022/09/24 05:44:31;;;;;;;5.55;0.90;;;;;;;9.63;100.00;98402.94;4759920;30;20696;-95
2022/09/24 05:46:58;;;;;;;4.20;0.80;;;;;;;9.57;100.00;98396.94;4739489;30;20036;-95
2022/09/24 05:49:23;;;;;;;7.20;1.10;;;;;;;9.44;100.00;98386.69;4765058;30;20094;-94
2022/09/24 05:51:49;;;;;;;6.10;0.80;;;;;;;9.50;100.00;98402.22;4749424;30;20040;-96
2022/09/24 05:54:16;;;;;;;5.20;0.85;;;;;;;9.58;100.00;98405.59;4765630;30;20064;-95
2022/09/24 05:56:42;;;;;;;4.35;0.90;;;;;;;9.46;100.00;98405.72;4766685;30;20032;-94
2022/09/24 05:59:08;;;;;;;4.45;1.05;;;;;;;9.31;100.00;98411.94;4763147;30;20043;-94
2022/09/24 06:01:33;;;;;;;8.73;1.52;;;;;;;8.97;100.00;98405.28;4736748;30;20036;-95
2022/09/24 06:03:59;;;;;;;5.80;1.00;;;;;;;9.13;100.00;98412.97;4733917;30;20100;-94
2022/09/24 06:06:27;;;;;;;7.95;1.20;;;;;;;9.13;100.00;98413.84;4754119;30;20036;-93
2022/09/24 06:10:36;;;;;;;6.00;1.20;;;;;;;9.10;100.00;98408.66;4755498;30;20104;-95
2022/09/24 06:13:42;;;;;;;;;;;;;;;;;;;;;
2022/09/24 06:20:05;;;;;;;6.10;1.08;;;;;;;9.44;100.00;98431.78;4647421;30;20165;-93
2022/09/24 06:22:39;;;;;;;5.47;1.02;;;;;;;9.51;100.00;98433.44;4661906;30;20678;-94
2022/09/24 06:25:07;;;;;;;6.75;1.13;;;;;;;9.49;100.00;98436.91;4648791;30;20653;-96
2022/09/24 06:27:34;;;;;;;5.47;1.05;;;;;;;9.53;100.00;98436.91;4648236;30;20045;-95
2022/09/24 06:30:00;;;;;;;5.13;1.10;;;;;;;9.55;100.00;98442.94;4667541;30;20126;-94
2022/09/24 06:32:25;;;;;;;8.82;1.25;;;;;;;9.71;100.00;98442.78;4662102;30;20504;-93
2022/09/24 06:34:51;;;;;;;6.88;0.93;;;;;;;9.66;100.00;98432.41;4662021;30;20054;-95
2022/09/24 06:37:16;;;;;;;3.42;0.95;;;;;;;9.55;100.00;98445.53;4664018;30;20057;-95
2022/09/24 06:39:42;;;;;;;7.07;1.08;;;;;;;9.73;100.00;98438.44;4664373;30;20058;-95
2022/09/24 06:42:08;;;;;;;5.63;1.20;;;;;;;9.69;100.00;98439.34;4665088;30;20048;-95
2022/09/24 06:44:36;;;;;;;5.72;1.00;;;;;;;9.61;100.00;98435.94;4651537;30;20050;-94
2022/09/24 06:47:02;;;;;;;5.30;1.17;;;;;;;9.68;100.00;98442.81;4696159;30;20154;-96
2022/09/24 06:49:34;;;;;;;4.25;0.90;;;;;;;9.60;100.00;98449.84;4710216;30;20026;-94
2022/09/24 06:52:00;;;;;;;7.07;1.17;;;;;;;9.67;100.00;98435.88;4713203;30;20074;-93
2022/09/24 06:54:33;;;;;;;6.90;1.08;;;;;;;9.60;100.00;98449.84;4777757;29;20126;-96
2022/09/24 06:57:13;;;;;;;6.53;0.90;;;;;;;9.78;100.00;98456.59;4754368;30;20187;-95
2022/09/24 06:59:54;;;;;;;5.50;1.30;;;;;;;9.58;100.00;98449.84;4741348;30;20047;-96
2022/09/24 07:02:35;;;;;;;;;;;;;;;;;;;;;
2022/09/24 07:05:20;;;;;;;8.88;1.00;;;;;;;9.61;100.00;98452.41;4776802;29;20062;-94
2022/09/24 07:08:09;;;;;;;6.40;1.00;;;;;;;9.68;100.00;98469.69;4768856;29;20051;-93
2022/09/24 07:11:00;;;;;;;6.30;1.02;;;;;;;9.66;100.00;98466.25;4781941;29;20043;-92
2022/09/24 07:16:32;;;;;;;7.82;1.27;;;;;;;9.59;100.00;98463.72;4697160;30;20068;-93
2022/09/24 07:19:00;;;;;;;5.88;1.17;;;;;;;9.51;100.00;98462.06;4703686;30;20830;-93
2022/09/24 07:22:05;;;;;;;;;;;;;;;;;;;;;
2022/09/24 07:25:00;;;;;;;6.75;1.13;;;;;;;9.60;100.00;98466.31;4691775;30;20076;-94
2022/09/24 07:27:29;;;;;;;7.32;1.08;;;;;;;9.55;100.00;98473.31;4701712;30;20049;-92
2022/09/24 07:30:01;;;;;;;7.13;1.20;;;;;;;9.68;100.00;98469.69;4705939;30;20045;-96
2022/09/24 07:32:33;;;;;;;8.10;1.13;;;;;;;9.74;100.00;98481.78;4703059;30;20148;-91
2022/09/24 07:38:29;;;;;;;5.03;1.15;;;;;;;9.77;100.00;98479.19;4694523;30;20705;-94
2022/09/24 07:41:11;;;;;;;4.22;0.95;;;;;;;9.83;100.00;98486.06;4693757;30;20164;-94
2022/09/24 07:43:39;;;;;;;5.80;1.08;;;;;;;9.86;100.00;98468.66;4682142;30;20045;-95
2022/09/24 07:46:44;;;;;;;7.53;1.20;;;;;;;9.83;100.00;98488.69;4683861;30;20046;-95
2022/09/24 07:49:10;;;;;;;8.05;1.48;;;;;;;9.84;100.00;98473.03;4679028;30;20060;-93
2022/09/24 07:51:52;;;;;;;8.27;1.38;;;;;;;9.83;100.00;98479.09;4766867;30;20154;-94
2022/09/24 07:54:18;;;;;;;9.23;1.00;;;;;;;9.95;100.00;98493.75;4787208;29;20118;-95
2022/09/24 07:56:44;;;;;;;6.72;1.10;;;;;;;9.76;100.00;98476.59;4774209;29;20114;-94
2022/09/24 07:59:14;;;;;;;10.30;1.50;;;;;;;9.90;100.00;98480.75;4772316;30;20594;-94
2022/09/24 08:02:23;;;;;;;4.65;1.00;;;;;;;9.98;100.00;98477.19;4787241;29;20072;-95
2022/09/24 08:04:49;;;;;;;6.20;1.33;;;;;;;10.12;100.00;98485.75;4766300;30;20039;-95
2022/09/24 08:07:31;;;;;;;5.63;1.25;;;;;;;10.02;100.00;98484.09;4764749;29;20722;-93
2022/09/24 08:11:18;;;;;;;;;;;;;;;;;;;;;
2022/09/24 08:14:50;;;;;;;6.95;1.25;;;;;;;10.49;100.00;98507.91;4760522;30;20419;-95
2022/09/24 08:21:37;;;;;;;11.18;1.65;;;;;;;10.86;100.00;98497.84;4716741;30;20098;-94
2022/09/24 08:32:16;;;;;;;7.60;1.48;;;;;;;10.75;100.00;98502.38;4662949;30;20934;-94
2022/09/24 08:34:59;;;;;;;;;;;;;;;;;;;;;
2022/09/24 08:37:47;;;;;;;8.15;1.88;;;;;;;10.93;100.00;98504.69;4662213;30;20229;-94
2022/09/24 08:51:05;;;;;;;5.88;1.67;;;;;;;12.08;100.00;98511.53;4641976;30;20058;-93
2022/09/24 08:54:22;;;;;;;8.98;1.83;;;;;;;12.15;100.00;98521.84;4645152;30;20129;-93
2022/09/24 08:57:13;;;;;;;10.63;1.83;;;;;;;12.04;100.00;98515.09;4632203;30;20042;-95
2022/09/24 08:59:45;;;;;;;8.15;1.55;;;;;;;11.82;100.00;98529.41;4712788;30;20041;-92
2022/09/24 09:02:34;;;;;;;7.88;1.77;;;;;;;12.13;100.00;98537.56;4702122;30;20454;-92
2022/09/24 09:05:31;;;;;;;9.68;1.98;;;;;;;11.77;100.00;98534.69;4706583;30;20498;-93
2022/09/24 09:08:14;;;;;;;9.73;2.08;;;;;;;12.11;100.00;98542.84;4694287;30;20051;-93
2022/09/24 09:10:46;;;;;;;7.78;1.50;;;;;;;11.87;100.00;98538.91;4693050;30;20612;-93
2022/09/24 09:14:07;;;;;;;7.63;1.60;;;;;;;12.19;100.00;98540.09;4704701;30;20049;-95
2022/09/24 09:21:05;;;;;;;9.18;1.80;;;;;;;11.68;100.00;98543.56;4669581;30;20234;-94
2022/09/24 09:24:15;;;;;;;7.95;2.42;;;;;;;12.01;100.00;98543.91;4659308;30;20057;-93
2022/09/24 09:30:42;;;;;;;;;;;;;;;;;;;;;
2022/09/24 09:33:52;;;;;;;11.77;2.10;;;;;;;12.03;100.00;98538.66;4588185;31;20460;-93
2022/09/24 09:36:45;;;;;;;7.53;2.20;;;;;;;12.12;100.00;98556.75;4592432;31;20056;-94
2022/09/24 09:39:49;;;;;;;9.55;2.83;;;;;;;12.01;100.00;98562.19;4617676;30;20151;-93
2022/09/24 09:42:41;;;;;;;9.85;2.60;;;;;;;12.15;100.00;98548.88;4589175;31;20281;-94
2022/09/24 09:46:04;;;;;;;8.45;2.50;;;;;;;12.03;100.00;98546.50;4580171;31;20059;-94
2022/09/24 09:49:24;;;;;;;8.27;2.50;;;;;;;12.20;100.00;98540.94;4604129;31;20051;-92
2022/09/24 09:51:56;;;;;;;9.48;2.53;;;;;;;12.55;100.00;98549.84;4604844;31;20688;-94
2022/09/24 09:54:22;;;;;;;8.25;2.70;;;;;;;12.20;100.00;98561.84;4557595;31;20076;-92
2022/09/24 09:56:54;;;;;;;8.88;2.55;;;;;;;12.13;100.00;98551.50;4557450;31;20076;-93
2022/09/24 09:59:46;;;;;;;6.68;2.58;;;;;;;12.37;100.00;98564.13;4557932;31;20054;-94
2022/09/24 10:02:52;;;;;;;8.25;2.20;;;;;;;12.72;100.00;98580.88;4557451;31;20198;-90
2022/09/24 10:08:24;;;;;;;10.07;2.30;;;;;;;12.66;100.00;98581.00;4578993;31;20048;-93
2022/09/24 10:11:18;;;;;;;11.98;2.80;;;;;;;12.97;100.00;98583.84;4613680;30;20047;-94
2022/09/24 10:14:52;;;;;;;7.97;2.10;;;;;;;13.31;100.00;98578.72;4646779;30;20046;-94
2022/09/24 10:17:24;;;;;;;10.27;2.17;;;;;;;13.88;100.00;98575.66;4609034;31;20055;-92
2022/09/24 10:19:49;;;;;;;7.85;2.10;;;;;;;14.03;100.00;98580.50;4614748;30;20070;-92
2022/09/24 10:22:40;;;;;;;6.40;1.80;;;;;;;13.21;100.00;98594.66;4636068;30;20128;-94
2022/09/24 10:25:53;;;;;;;;;;;;;;;;;;;;;
2022/09/24 10:32:06;;;;;;;6.30;1.50;;;;;;;13.14;100.00;98599.19;4587176;31;20165;-92
2022/09/24 10:35:24;;;;;;;;;;;;;;;;;;;;;
2022/09/24 10:45:22;;;;;;;5.43;1.40;;;;;;;13.52;100.00;98604.50;4568732;31;20609;-93
2022/09/24 10:48:49;;;;;;;6.93;1.50;;;;;;;14.21;100.00;98604.53;4618723;30;20172;-93
2022/09/24 10:52:06;;;;;;;6.28;1.38;;;;;;;13.74;100.00;98615.31;4619018;30;20051;-94
2022/09/24 10:55:12;;;;;;;4.05;1.35;;;;;;;13.47;100.00;98617.69;4605017;31;20063;-93
2022/09/24 10:58:12;;;;;;;5.30;1.23;;;;;;;13.30;100.00;98602.31;4659755;30;20033;-92
2022/09/24 11:01:18;;;;;;;6.05;1.50;;;;;;;13.20;100.00;98606.91;4658913;30;20560;-94
2022/09/24 11:07:51;;;;;;;4.85;1.27;;;;;;;13.60;100.00;98610.41;4678177;30;20061;-93
2022/09/24 11:10:44;;;;;;;6.35;1.30;;;;;;;13.66;100.00;98612.88;4710380;30;20119;-94
2022/09/24 11:13:50;;;;;;;8.23;1.33;;;;;;;13.59;100.00;98612.16;4706656;30;20056;-93
2022/09/24 11:17:12;;;;;;;4.25;1.05;;;;;;;13.62;100.00;98622.56;4706948;30;20087;-94
2022/09/24 11:20:03;;;;;;;5.57;1.00;;;;;;;13.11;100.00;98628.03;4730014;30;20068;-96
2022/09/24 11:23:17;;;;;;;;;;;;;;;;;;;;;
2022/09/24 11:26:20;;;;;;;5.30;1.10;;;;;;;13.85;100.00;98629.03;4771588;29;20043;-95
2022/09/24 11:29:23;;;;;;;5.68;1.40;;;;;;;13.96;100.00;98621.75;4789656;29;20046;-96
2022/09/24 11:32:52;;;;;;;5.63;1.30;;;;;;;14.06;100.00;98635.50;4749751;30;20053;-95
2022/09/24 11:36:03;;;;;;;3.95;1.15;;;;;;;13.56;100.00;98627.97;4698013;30;20103;-94
2022/09/24 11:38:47;;;;;;;6.90;1.50;;;;;;;14.22;100.00;98624.59;4697474;30;20053;-96
2022/09/24 11:41:40;;;;;;;4.82;1.25;;;;;;;14.47;100.00;98638.81;4703520;30;20033;-94
2022/09/24 11:44:32;;;;;;;8.57;1.40;;;;;;;13.74;100.00;98634.53;4686136;30;20046;-96
2022/09/24 11:47:25;;;;;;;5.35;1.38;;;;;;;13.91;100.00;98630.63;4709709;30;20037;-95
2022/09/24 11:50:13;;;;;;;6.18;1.20;;;;;;;13.69;100.00;98643.41;4670760;30;20050;-95
2022/09/24 11:53:07;;;;;;;7.47;1.20;;;;;;;13.86;100.00;98630.72;4667403;30;20137;-95
2022/09/24 11:55:52;;;;;;;4.53;1.15;;;;;;;13.74;100.00;98639.75;4682119;30;20034;-96
2022/09/24 11:58:41;;;;;;;5.95;1.20;;;;;;;13.66;100.00;98626.81;4664540;30;20195;-95
2022/09/24 12:01:49;;;;;;;5.03;1.30;;;;;;;13.54;100.00;98647.22;4653576;30;20046;-94
2022/09/24 12:05:00;;;;;;;3.55;0.95;;;;;;;13.78;100.00;98643.19;4665075;30;20615;-96
2022/09/24 12:07:38;;;;;;;4.90;1.20;;;;;;;14.66;100.00;98633.09;4684382;30;20106;-96
2022/09/24 12:10:23;;;;;;;6.00;1.10;;;;;;;14.77;100.00;98643.28;4669748;30;20139;-96
2022/09/24 12:12:58;;;;;;;4.22;1.05;;;;;;;14.34;100.00;98645.28;4713877;30;20040;-96
2022/09/24 12:15:41;;;;;;;4.22;1.10;;;;;;;14.00;100.00;98656.59;4693717;30;20041;-95
2022/09/24 12:18:18;;;;;;;2.97;0.93;;;;;;;13.91;100.00;98662.94;4718858;30;20052;-96
2022/09/24 12:21:08;;;;;;;4.55;1.08;;;;;;;13.74;100.00;98652.03;4706802;30;20136;-95
2022/09/24 12:23:41;;;;;;;4.53;1.25;;;;;;;13.97;100.00;98657.56;4701720;30;20135;-96
2022/09/24 12:26:07;;;;;;;;;;;;;;;14.20;100.00;98657.91;4735345;29;20047;-96
2022/09/24 12:35:35;;;;;;;6.43;1.00;;;;;;;14.11;100.00;98661.59;4797238;29;20074;-96
2022/09/24 12:38:19;;;;;;;3.35;0.80;;;;;;;14.59;100.00;98666.47;4804662;29;20058;-96
2022/09/24 12:41:07;;;;;;;3.33;0.80;;;;;;;15.11;100.00;98677.31;4800115;29;20880;-96
2022/09/24 12:43:55;;;;;;;5.03;1.30;;;;;;;14.96;100.00;98677.75;4788858;30;20103;-96
2022/09/24 12:46:34;;;;;;;6.05;1.10;;;;;;;15.33;100.00;98666.19;4793161;29;20048;-96
2022/09/24 12:49:46;;;;;;;5.18;1.20;;;;;;;14.52;100.00;98678.03;4795752;29;20031;-94
2022/09/24 12:52:41;;;;;;;4.85;0.90;;;;;;;13.75;100.00;98677.31;4771312;30;20115;-94
2022/09/24 12:55:33;;;;;;;8.00;1.08;;;;;;;13.36;100.00;98674.69;4777197;30;20039;-96
2022/09/24 12:58:06;;;;;;;3.60;0.70;;;;;;;13.52;100.00;98681.31;4771698;30;20499;-95
2022/09/24 13:00:37;;;;;;;4.30;0.93;;;;;;;13.84;100.00;98690.22;4782025;30;20077;-96
2022/09/24 13:06:46;;;;;;;3.80;0.80;;;;;;;13.74;100.00;98693.94;4783650;29;20038;-96
2022/09/24 13:09:35;;;;;;;4.13;0.70;;;;;;;13.57;100.00;98696.94;4782405;24;20037;-96
2022/09/24 13:12:41;;;;;;;3.35;0.60;;;;;;;13.51;100.00;98705.78;4772168;30;20071;-96
2022/09/24 13:15:28;;;;;;;3.33;0.70;;;;;;;14.39;100.00;98701.13;4662019;30;20041;-96
2022/09/24 13:18:21;;;;;;;4.85;0.80;;;;;;;14.92;100.00;98698.00;4670037;30;20053;-96
2022/09/24 13:20:59;;;;;;;4.95;0.70;;;;;;;14.81;100.00;98686.94;4678160;30;20049;-96
2022/09/24 13:23:24;;;;;;;2.67;0.50;;;;;;;13.95;100.00;98703.91;4679030;30;20038;-96
2022/09/24 13:26:04;;;;;;;3.42;0.50;;;;;;;14.39;100.00;98703.75;4680700;30;20150;-96
2022/09/24 13:28:57;;;;;;;1.35;0.40;;;;;;;14.63;100.00;98707.53;4684557;30;20041;-96
2022/09/24 13:31:26;;;;;;;3.38;0.65;;;;;;;14.67;100.00;98703.06;4678764;30;20042;-96
2022/09/24 13:34:02;;;;;;;2.63;0.60;;;;;;;14.48;100.00;98713.13;4681983;30;22005;-95
2022/09/24 13:36:44;;;;;;;3.17;0.50;;;;;;;14.25;100.00;98711.97;4668557;30;20036;-96
2022/09/24 13:39:39;;;;;;;4.53;0.52;;;;;;;14.22;100.00;98708.53;4680270;30;20072;-96
2022/09/24 13:42:38;;;;;;;2.35;0.50;;;;;;;14.25;100.00;98700.59;4681159;30;20578;-96
2022/09/24 13:45:10;;;;;;;2.95;0.60;;;;;;;14.32;100.00;98697.78;4680586;30;20044;-96
2022/09/24 13:47:46;;;;;;;1.83;0.50;;;;;;;14.22;100.00;98712.00;4770683;30;20463;-96